Time;durP1;ratioP1;P1;durP2;ratioP2;P2;SDS_P1;SDS_P2;PMS_P1;PMS_P2;Temp;Humidity;BMP_temperature;BMP_pressure;BME280_temperature;BME280_humidity;BME280_pressure;Samples;Min_cycle;Max_cycle;Signal;HPM_P1;HPM_P2
2022/09/01 00:01:20;;;;;;;2.87;1.20;;;;;;;16.31;100.00;99378.22;4380718;32;20436;-77
2022/09/01 00:03:54;;;;;;;2.53;1.33;;;;;;;16.37;100.00;99380.88;4382904;32;20047;-74
2022/09/01 00:06:22;;;;;;;1.80;1.40;;;;;;;16.41;100.00;99376.53;4381143;32;20023;-74
2022/09/01 00:08:54;;;;;;;1.55;1.10;;;;;;;16.29;100.00;99368.69;4351494;32;20054;-76
2022/09/01 00:11:23;;;;;;;8.82;1.75;;;;;;;16.45;100.00;99383.03;4354352;32;20077;-73
2022/09/01 00:13:49;;;;;;;1.37;1.27;;;;;;;15.87;100.00;99286.59;4354362;32;20039;-74
2022/09/01 00:16:17;;;;;;;1.33;1.23;;;;;;;16.29;100.00;99382.28;4353467;32;20316;-73
2022/09/01 00:18:48;;;;;;;3.90;2.03;;;;;;;15.89;100.00;99302.59;4353541;32;20087;-77
2022/09/01 00:21:17;;;;;;;2.25;1.48;;;;;;;16.01;100.00;99337.59;4355329;32;20078;-73
2022/09/01 00:23:44;;;;;;;4.62;1.40;;;;;;;16.05;100.00;99349.53;4370082;32;20093;-73
2022/09/01 00:26:11;;;;;;;4.95;1.60;;;;;;;16.21;100.00;99372.84;4369256;32;20039;-73
2022/09/01 00:28:38;;;;;;;2.55;1.70;;;;;;;16.01;100.00;99378.34;4371320;32;20080;-76
2022/09/01 00:31:06;;;;;;;2.25;1.62;;;;;;;16.22;100.00;99389.94;4368615;32;20052;-74
2022/09/01 00:33:34;;;;;;;1.65;1.55;;;;;;;16.32;100.00;99382.56;4373785;32;20102;-73
2022/09/01 00:36:01;;;;;;;2.40;1.77;;;;;;;16.29;100.00;99380.41;4424048;32;20030;-73
2022/09/01 00:38:27;;;;;;;5.35;1.50;;;;;;;16.33;100.00;99384.16;4392196;32;20037;-73
2022/09/01 00:40:54;;;;;;;1.42;1.33;;;;;;;16.29;100.00;99388.56;4395564;32;20115;-75
2022/09/01 00:43:35;;;;;;;5.47;1.70;;;;;;;16.17;100.00;99371.75;4398962;32;20213;-73
2022/09/01 00:46:08;;;;;;;2.97;1.70;;;;;;;15.84;100.00;99303.44;4393061;32;20031;-73
2022/09/01 00:48:36;;;;;;;1.90;1.75;;;;;;;15.91;100.00;99341.97;4397459;32;20068;-74
2022/09/01 00:51:04;;;;;;;3.25;1.83;;;;;;;15.82;100.00;99342.84;4397621;32;20134;-72
2022/09/01 00:53:32;;;;;;;9.40;1.60;;;;;;;16.05;100.00;99379.41;4398678;32;20027;-73
2022/09/01 00:56:00;;;;;;;4.03;1.62;;;;;;;15.58;100.00;99343.41;4397517;32;20480;-73
2022/09/01 00:58:26;;;;;;;2.33;1.23;;;;;;;15.78;100.00;99380.59;4396382;32;20056;-76
2022/09/01 01:00:53;;;;;;;1.60;1.50;;;;;;;15.71;100.00;99340.09;4398628;32;20065;-73
2022/09/01 01:03:20;;;;;;;1.60;1.50;;;;;;;15.39;100.00;99280.78;4399031;32;20484;-73
2022/09/01 01:05:53;;;;;;;6.62;1.37;;;;;;;15.59;100.00;99337.69;4399121;32;20069;-73
2022/09/01 01:08:32;;;;;;;2.22;1.10;;;;;;;15.43;100.00;99330.69;4396370;32;20060;-73
2022/09/01 01:11:01;;;;;;;1.60;1.50;;;;;;;15.65;100.00;99383.81;4368862;32;20412;-73
2022/09/01 01:13:30;;;;;;;4.95;1.90;;;;;;;15.57;100.00;99363.47;4368868;32;20039;-73
2022/09/01 01:15:58;;;;;;;2.67;1.42;;;;;;;15.55;100.00;99371.09;4342051;33;20027;-74
2022/09/01 01:18:25;;;;;;;2.97;1.50;;;;;;;15.51;100.00;99370.84;4354017;32;20721;-73
2022/09/01 01:24:33;;;;;;;5.43;1.30;;;;;;;15.35;100.00;99344.78;4359090;32;20408;-73
2022/09/01 01:27:00;;;;;;;9.32;1.50;;;;;;;15.50;100.00;99371.91;4351083;32;20035;-73
2022/09/01 01:29:32;;;;;;;1.95;1.55;;;;;;;15.33;100.00;99342.34;4353406;32;20089;-73
2022/09/01 01:31:59;;;;;;;2.47;1.62;;;;;;;15.59;100.00;99378.41;4337253;33;20039;-74
2022/09/01 01:34:26;;;;;;;10.85;1.80;;;;;;;15.28;100.00;99344.28;4338219;33;20048;-75
2022/09/01 01:36:55;;;;;;;1.33;1.23;;;;;;;15.61;100.00;99384.37;4352197;32;20354;-77
2022/09/01 01:39:27;;;;;;;1.85;1.37;;;;;;;15.60;100.00;99380.06;4383257;32;20039;-74
2022/09/01 01:41:56;;;;;;;4.20;1.67;;;;;;;15.36;100.00;99351.84;4394554;32;20415;-72
2022/09/01 01:44:27;;;;;;;1.73;1.40;;;;;;;15.24;100.00;99333.97;4412820;32;20082;-73
2022/09/01 01:46:56;;;;;;;5.47;1.10;;;;;;;14.99;100.00;99296.03;4366470;32;20051;-73
2022/09/01 01:49:24;;;;;;;1.33;1.23;;;;;;;15.51;100.00;99370.84;4367456;32;21089;-74
2022/09/01 01:51:54;;;;;;;2.72;1.50;;;;;;;15.46;100.00;99367.31;4366861;32;20028;-74
2022/09/01 01:54:25;;;;;;;3.08;1.60;;;;;;;15.56;100.00;99357.25;4368588;32;20043;-74
2022/09/01 01:56:56;;;;;;;4.00;1.58;;;;;;;15.58;100.00;99365.91;4364031;32;20053;-74
2022/09/01 01:59:25;;;;;;;2.87;1.37;;;;;;;15.50;100.00;99361.06;4370178;32;20066;-74
2022/09/01 02:01:55;;;;;;;3.28;1.17;;;;;;;15.21;100.00;99315.53;4369577;32;20062;-73
2022/09/01 02:04:22;;;;;;;3.35;1.65;;;;;;;15.16;100.00;99326.38;4357129;32;20098;-74
2022/09/01 02:06:50;;;;;;;4.87;1.75;;;;;;;15.14;100.00;99323.13;4382737;32;20416;-76
2022/09/01 02:09:20;;;;;;;2.92;1.60;;;;;;;15.19;100.00;99323.13;4386215;32;20501;-74
2022/09/01 02:11:48;;;;;;;3.15;1.50;;;;;;;15.42;100.00;99356.19;4384510;32;20427;-74
2022/09/01 02:14:20;;;;;;;2.62;1.10;;;;;;;15.41;100.00;99359.97;4339431;33;20044;-74
2022/09/01 02:16:48;;;;;;;1.42;1.33;;;;;;;15.40;100.00;99358.38;4280865;33;20030;-78
2022/09/01 02:19:19;;;;;;;1.70;1.23;;;;;;;15.28;100.00;99355.13;4310379;33;20037;-74
2022/09/01 02:21:52;;;;;;;2.00;1.58;;;;;;;14.99;100.00;99317.72;4320264;33;20048;-74
2022/09/01 02:24:19;;;;;;;2.35;1.20;;;;;;;15.05;100.00;99316.63;4356211;32;20044;-73
2022/09/01 02:26:47;;;;;;;5.75;1.60;;;;;;;15.35;100.00;99358.34;4354130;32;20047;-75
2022/09/01 02:29:20;;;;;;;4.65;1.62;;;;;;;15.15;100.00;99346.44;4354751;32;20040;-75
2022/09/01 02:31:52;;;;;;;1.17;1.10;;;;;;;14.75;100.00;99293.84;4359961;32;20449;-73
2022/09/01 02:34:22;;;;;;;5.55;2.05;;;;;;;14.87;100.00;99318.81;4339404;33;20467;-73
2022/09/01 02:36:52;;;;;;;3.25;1.10;;;;;;;14.52;100.00;99279.72;4338541;33;20055;-74
2022/09/01 02:39:23;;;;;;;4.68;1.58;;;;;;;14.76;100.00;99322.59;4340752;33;20051;-73
2022/09/01 02:41:49;;;;;;;2.47;1.17;;;;;;;14.39;100.00;99258.59;4340948;33;20036;-74
2022/09/01 02:44:20;;;;;;;1.15;1.10;;;;;;;15.01;100.00;99356.22;4340912;33;20478;-73
2022/09/01 02:46:49;;;;;;;5.28;1.48;;;;;;;14.95;100.00;99351.88;4316578;33;20419;-74
2022/09/01 02:49:27;;;;;;;3.00;1.58;;;;;;;14.96;100.00;99357.00;4321444;33;20052;-73
2022/09/01 02:51:58;;;;;;;2.40;1.45;;;;;;;14.91;100.00;99362.44;4310468;33;20037;-74
2022/09/01 02:54:27;;;;;;;12.32;1.50;;;;;;;14.91;100.00;99367.87;4339201;33;20052;-74
2022/09/01 02:56:53;;;;;;;2.83;2.03;;;;;;;14.86;100.00;99365.97;4293709;33;20077;-75
2022/09/01 02:59:23;;;;;;;2.55;1.62;;;;;;;14.78;100.00;99361.06;4305475;33;20182;-74
2022/09/01 03:01:52;;;;;;;3.47;1.30;;;;;;;14.83;100.00;99366.50;4296991;33;20376;-73
2022/09/01 03:04:21;;;;;;;3.62;2.08;;;;;;;14.78;100.00;99362.97;4290752;33;20025;-74
2022/09/01 03:06:53;;;;;;;1.45;1.35;;;;;;;14.82;100.00;99364.88;4294390;33;20030;-76
2022/09/01 03:09:21;;;;;;;3.28;1.60;;;;;;;14.71;100.00;99364.06;4295772;33;20364;-73
2022/09/01 03:11:50;;;;;;;7.30;1.45;;;;;;;14.60;100.00;99367.00;4295243;33;20037;-74
2022/09/01 03:14:16;;;;;;;2.03;1.25;;;;;;;14.50;100.00;99365.06;4294013;33;20038;-75
2022/09/01 03:16:44;;;;;;;4.12;1.30;;;;;;;14.47;100.00;99363.72;4265824;33;20041;-77
2022/09/01 03:19:11;;;;;;;3.55;1.67;;;;;;;14.41;100.00;99363.94;4267107;33;20034;-74
2022/09/01 03:21:41;;;;;;;3.05;1.35;;;;;;;14.37;100.00;99360.16;4280687;33;20109;-72
2022/09/01 03:24:13;;;;;;;3.65;1.30;;;;;;;14.19;100.00;99337.09;4268326;33;20383;-75
2022/09/01 03:26:40;;;;;;;3.08;1.45;;;;;;;14.31;100.00;99354.72;4292804;33;20067;-73
2022/09/01 03:29:07;;;;;;;4.68;1.90;;;;;;;14.46;100.00;99372.91;4304451;33;20049;-73
2022/09/01 03:31:35;;;;;;;3.03;1.77;;;;;;;14.27;100.00;99363.66;4318324;32;20036;-75
2022/09/01 03:34:04;;;;;;;1.70;1.60;;;;;;;14.23;100.00;99362.53;4373693;32;20065;-76
2022/09/01 03:36:32;;;;;;;19.80;1.75;;;;;;;13.90;100.00;99299.63;4393909;32;20043;-76
2022/09/01 03:39:00;;;;;;;2.17;1.70;;;;;;;13.97;100.00;99317.22;4382846;32;20455;-74
2022/09/01 03:41:29;;;;;;;3.37;1.70;;;;;;;14.12;100.00;99357.09;4379382;32;20039;-74
2022/09/01 03:43:58;;;;;;;3.97;1.73;;;;;;;14.10;100.00;99359.22;4369242;32;20082;-74
2022/09/01 03:46:29;;;;;;;4.32;1.48;;;;;;;13.94;100.00;99371.09;4382054;32;20078;-76
2022/09/01 03:48:59;;;;;;;8.35;1.85;;;;;;;13.54;100.00;99324.59;4383590;32;20039;-74
2022/09/01 03:51:29;;;;;;;1.65;1.40;;;;;;;13.77;100.00;99365.88;4367969;32;20191;-73
2022/09/01 03:53:57;;;;;;;2.20;1.35;;;;;;;13.67;100.00;99366.59;4340230;33;20048;-74
2022/09/01 03:56:28;;;;;;;3.55;1.23;;;;;;;13.73;100.00;99368.25;4342150;32;20397;-74
2022/09/01 03:58:57;;;;;;;2.75;1.58;;;;;;;13.60;100.00;99344.38;4340053;33;20070;-73
2022/09/01 04:01:26;;;;;;;3.28;1.55;;;;;;;13.41;100.00;99344.81;4339234;33;20050;-73
2022/09/01 04:03:53;;;;;;;2.28;2.10;;;;;;;13.34;100.00;99341.53;4338651;33;20055;-75
2022/09/01 04:06:22;;;;;;;1.33;1.23;;;;;;;13.50;100.00;99374.06;4337660;33;20050;-74
2022/09/01 04:08:52;;;;;;;6.18;1.48;;;;;;;13.41;100.00;99385.38;4353218;32;20058;-74
2022/09/01 04:11:22;;;;;;;2.80;1.45;;;;;;;13.38;100.00;99374.28;4354868;32;20059;-74
2022/09/01 04:13:51;;;;;;;4.03;1.15;;;;;;;13.07;100.00;99333.47;4347043;32;20051;-73
2022/09/01 04:19:18;;;;;;;3.28;1.70;;;;;;;13.16;100.00;99339.19;4356387;32;20501;-75
2022/09/01 04:21:49;;;;;;;1.95;1.37;;;;;;;13.50;100.00;99374.06;4360432;32;20075;-78
2022/09/01 04:24:17;;;;;;;3.47;1.65;;;;;;;13.35;100.00;99347.75;4360636;32;20078;-75
2022/09/01 04:26:46;;;;;;;8.32;1.90;;;;;;;12.93;100.00;99297.13;4383002;32;20102;-74
2022/09/01 04:29:17;;;;;;;1.75;1.40;;;;;;;13.46;100.00;99378.38;4382488;32;20035;-74
2022/09/01 04:31:52;;;;;;;4.10;1.48;;;;;;;13.51;100.00;99373.00;4380301;32;20050;-77
2022/09/01 04:34:22;;;;;;;3.35;1.58;;;;;;;13.40;100.00;99378.34;4383932;32;20035;-75
2022/09/01 04:36:53;;;;;;;1.35;1.35;;;;;;;13.37;100.00;99378.88;4383482;32;20061;-75
2022/09/01 04:39:20;;;;;;;8.30;1.83;;;;;;;13.26;100.00;99350.09;4383696;32;20039;-76
2022/09/01 04:41:49;;;;;;;6.82;1.73;;;;;;;13.40;100.00;99372.94;4390070;32;20434;-75
2022/09/01 04:44:17;;;;;;;3.40;1.77;;;;;;;13.31;100.00;99379.88;4389484;32;20027;-76
2022/09/01 04:46:47;;;;;;;2.60;1.65;;;;;;;12.89;100.00;99318.44;4271662;33;20112;-74
2022/09/01 04:49:18;;;;;;;1.90;1.42;;;;;;;13.28;100.00;99380.41;4273536;33;20037;-76
2022/09/01 04:51:48;;;;;;;6.40;1.87;;;;;;;13.22;100.00;99381.44;4288038;33;20294;-74
2022/09/01 04:54:15;;;;;;;3.00;1.90;;;;;;;12.67;100.00;99284.22;4280106;33;20045;-73
2022/09/01 04:56:44;;;;;;;1.87;1.70;;;;;;;13.40;100.00;99383.78;4264922;33;20195;-73
2022/09/01 04:59:13;;;;;;;1.52;1.50;;;;;;;13.22;100.00;99348.97;4267300;33;21645;-75
2022/09/01 05:01:44;;;;;;;2.55;1.55;;;;;;;13.51;100.00;99389.25;4266779;33;20043;-73
2022/09/01 05:04:16;;;;;;;3.67;2.00;;;;;;;13.68;100.00;99392.59;4271072;33;20386;-73
2022/09/01 05:06:52;;;;;;;1.77;1.60;;;;;;;13.48;100.00;99341.06;4263912;33;20366;-76
2022/09/01 05:09:19;;;;;;;5.65;2.05;;;;;;;13.65;100.00;99371.47;4257959;33;20059;-73
2022/09/01 05:11:47;;;;;;;2.60;2.00;;;;;;;13.39;100.00;99311.81;4283499;33;20057;-73
2022/09/01 05:14:17;;;;;;;8.40;1.52;;;;;;;13.74;100.00;99342.84;4294921;33;20738;-73
2022/09/01 05:16:45;;;;;;;7.07;2.53;;;;;;;13.74;100.00;99383.44;4333431;32;20646;-74
2022/09/01 05:19:16;;;;;;;3.42;1.50;;;;;;;13.83;100.00;99391.87;4351727;32;20107;-72
2022/09/01 05:21:44;;;;;;;;;;;;;;;13.75;100.00;99341.78;4353672;32;20061;-74
2022/09/01 05:24:20;;;;;;;4.03;1.77;;;;;;;13.99;100.00;99384.63;4367990;32;19938;-74
2022/09/01 05:26:49;;;;;;;3.12;1.30;;;;;;;13.61;100.00;99340.63;4368612;32;20047;-74
2022/09/01 05:29:16;;;;;;;2.78;1.17;;;;;;;13.70;100.00;99349.84;4365911;32;20043;-73
2022/09/01 05:31:45;;;;;;;1.30;1.20;;;;;;;13.86;100.00;99374.28;4377602;32;20073;-74
2022/09/01 05:34:18;;;;;;;2.72;1.17;;;;;;;14.02;100.00;99340.00;4373717;32;20028;-73
2022/09/01 05:36:49;;;;;;;1.45;1.35;;;;;;;13.90;100.00;99296.91;4393470;32;20064;-76
2022/09/01 05:39:16;;;;;;;1.50;1.00;;;;;;;14.49;100.00;99372.38;4382852;32;20070;-72
2022/09/01 05:41:44;;;;;;;3.58;1.35;;;;;;;13.95;100.00;99340.25;4413000;32;20060;-74
2022/09/01 05:44:12;;;;;;;2.53;0.90;;;;;;;14.56;100.00;99382.16;4410657;32;20336;-74
2022/09/01 05:46:43;;;;;;;8.63;1.23;;;;;;;14.44;100.00;99337.16;4411598;32;20054;-75
2022/09/01 05:49:12;;;;;;;4.28;2.15;;;;;;;14.79;100.00;99332.06;4411610;32;20023;-74
2022/09/01 05:51:41;;;;;;;2.72;1.10;;;;;;;14.59;100.00;99349.09;4412626;32;20064;-74
2022/09/01 05:54:10;;;;;;;5.47;1.05;;;;;;;14.64;100.00;99384.37;4412009;32;20109;-76
2022/09/01 05:56:39;;;;;;;2.67;1.15;;;;;;;14.29;100.00;99345.22;4411583;32;20030;-76
2022/09/01 05:59:06;;;;;;;4.93;1.00;;;;;;;14.39;100.00;99350.69;4411561;32;20019;-74
2022/09/01 06:01:37;;;;;;;1.75;0.70;;;;;;;14.26;100.00;99341.16;4408970;32;20081;-73
2022/09/01 06:04:05;;;;;;;4.60;0.88;;;;;;;14.09;100.00;99351.41;4408562;32;20039;-73
2022/09/01 06:06:45;;;;;;;4.80;1.70;;;;;;;14.58;100.00;99369.13;4398724;32;20066;-74
2022/09/01 06:09:16;;;;;;;2.17;1.15;;;;;;;14.34;100.00;99347.94;4398306;32;20051;-74
2022/09/01 06:11:45;;;;;;;0.95;0.93;;;;;;;14.29;100.00;99345.22;4394873;32;20411;-76
2022/09/01 06:14:14;;;;;;;2.67;0.98;;;;;;;14.52;100.00;99366.41;4397721;32;20052;-73
2022/09/01 06:16:43;;;;;;;1.83;0.77;;;;;;;14.42;100.00;99358.25;4396593;32;20038;-76
2022/09/01 06:19:11;;;;;;;5.87;2.55;;;;;;;14.69;100.00;99381.66;4397455;32;20050;-74
2022/09/01 06:21:40;;;;;;;0.60;0.60;;;;;;;14.76;100.00;99387.66;4397178;32;20056;-76
2022/09/01 06:24:07;;;;;;;2.85;0.90;;;;;;;14.92;100.00;99383.06;4395185;32;20075;-76
2022/09/01 06:26:35;;;;;;;2.95;0.88;;;;;;;15.06;100.00;99386.03;4396330;32;20030;-75
2022/09/01 06:29:08;;;;;;;3.62;1.20;;;;;;;14.58;100.00;99332.00;4379872;32;20417;-76
2022/09/01 06:31:44;;;;;;;2.67;1.25;;;;;;;15.16;100.00;99390.66;4389538;32;20073;-74
2022/09/01 06:34:17;;;;;;;1.02;1.02;;;;;;;15.06;100.00;99358.91;4397839;32;20038;-74
2022/09/01 06:36:47;;;;;;;2.45;0.88;;;;;;;15.31;100.00;99355.38;4400718;32;20114;-78
2022/09/01 06:39:18;;;;;;;4.18;0.65;;;;;;;15.40;100.00;99363.78;4426731;32;20050;-75
2022/09/01 06:41:49;;;;;;;2.17;0.70;;;;;;;15.32;100.00;99377.91;4417757;32;20086;-75
2022/09/01 06:44:21;;;;;;;3.75;0.93;;;;;;;15.20;100.00;99365.41;4411757;32;20038;-75
2022/09/01 06:46:50;;;;;;;;;;;;;;;15.58;100.00;99393.06;4414936;32;20047;-73
2022/09/01 06:49:20;;;;;;;0.55;0.47;;;;;;;15.67;100.00;99406.06;4415354;32;19930;-74
2022/09/01 06:51:48;;;;;;;3.55;0.70;;;;;;;15.33;100.00;99368.66;4415596;32;20018;-73
2022/09/01 06:54:18;;;;;;;2.55;1.35;;;;;;;15.52;100.00;99372.44;4415026;32;20096;-74
2022/09/01 06:56:47;;;;;;;2.90;0.98;;;;;;;15.53;100.00;99379.50;4414150;32;20426;-72
2022/09/01 06:59:14;;;;;;;4.57;0.80;;;;;;;15.70;100.00;99372.94;4415632;32;20379;-74
2022/09/01 07:01:42;;;;;;;2.72;0.88;;;;;;;15.12;100.00;99314.44;4415170;32;20050;-74
2022/09/01 07:04:09;;;;;;;1.90;1.33;;;;;;;15.61;100.00;99370.81;4400710;32;20034;-74
2022/09/01 07:06:38;;;;;;;2.08;0.90;;;;;;;15.48;100.00;99355.09;4398427;32;20438;-77
2022/09/01 07:09:08;;;;;;;3.25;0.73;;;;;;;15.60;100.00;99369.19;4398539;32;20104;-74
2022/09/01 07:11:35;;;;;;;0.80;0.80;;;;;;;15.57;100.00;99380.59;4429867;32;20030;-75
2022/09/01 07:14:05;;;;;;;2.75;0.80;;;;;;;15.81;100.00;99393.59;4428808;32;20056;-75
2022/09/01 07:16:38;;;;;;;1.00;0.65;;;;;;;15.57;100.00;99379.75;4426284;32;20045;-74
2022/09/01 07:19:12;;;;;;;4.45;0.90;;;;;;;15.17;100.00;99349.72;4427674;32;20169;-71
2022/09/01 07:21:42;;;;;;;0.82;0.82;;;;;;;15.96;100.00;99426.12;4440286;32;20053;-70
2022/09/01 07:24:10;;;;;;;2.75;0.80;;;;;;;15.49;100.00;99393.88;4444792;32;20056;-74
2022/09/01 07:26:39;;;;;;;4.15;0.70;;;;;;;15.36;100.00;99395.25;4445021;32;20114;-74
2022/09/01 07:29:06;;;;;;;2.47;1.00;;;;;;;15.32;100.00;99376.00;4442123;32;20075;-73
2022/09/01 07:31:40;;;;;;;1.90;1.00;;;;;;;15.69;100.00;99425.62;4428879;32;20030;-73
2022/09/01 07:34:11;;;;;;;2.33;1.30;;;;;;;15.39;100.00;99345.87;4425351;32;20101;-77
2022/09/01 07:36:41;;;;;;;4.32;0.90;;;;;;;15.92;100.00;99424.25;4430975;32;20355;-73
2022/09/01 07:39:14;;;;;;;2.08;0.90;;;;;;;15.77;100.00;99389.81;4437960;32;20049;-73
2022/09/01 07:41:42;;;;;;;0.65;0.65;;;;;;;15.96;100.00;99431.56;4429888;32;20046;-73
2022/09/01 07:44:15;;;;;;;1.05;0.90;;;;;;;16.04;100.00;99421.25;4427791;32;20127;-74
2022/09/01 07:46:50;;;;;;;0.68;0.68;;;;;;;15.95;100.00;99421.78;4433458;32;20092;-74
2022/09/01 07:49:18;;;;;;;4.75;0.90;;;;;;;15.91;100.00;99406.34;4435556;32;20064;-73
2022/09/01 07:51:48;;;;;;;3.05;0.60;;;;;;;15.93;100.00;99407.69;4400268;32;20451;-73
2022/09/01 07:54:15;;;;;;;2.62;0.90;;;;;;;16.23;100.00;99413.31;4396634;32;20093;-73
2022/09/01 07:56:43;;;;;;;2.42;0.85;;;;;;;16.17;100.00;99415.22;4399696;32;20046;-73
2022/09/01 07:59:10;;;;;;;2.28;0.70;;;;;;;16.17;100.00;99409.78;4399300;32;20062;-73
2022/09/01 08:01:37;;;;;;;2.75;0.73;;;;;;;16.50;100.00;99418.34;4397837;32;20078;-73
2022/09/01 08:04:04;;;;;;;1.00;0.80;;;;;;;15.89;100.00;99398.47;4404920;32;20064;-77
2022/09/01 08:06:33;;;;;;;3.00;0.77;;;;;;;15.86;100.00;99343.88;4399006;32;20039;-74
2022/09/01 08:08:59;;;;;;;2.85;0.80;;;;;;;16.62;100.00;99426.97;4413103;32;20034;-73
2022/09/01 08:11:29;;;;;;;2.40;1.40;;;;;;;16.96;100.00;99396.34;4413003;32;20097;-74
2022/09/01 08:14:00;;;;;;;2.12;1.27;;;;;;;16.58;100.00;99333.50;4403791;32;20027;-73
2022/09/01 08:16:34;;;;;;;1.25;1.20;;;;;;;16.46;100.00;99388.19;4398535;32;20083;-73
2022/09/01 08:19:00;;;;;;;0.60;0.60;;;;;;;16.82;100.00;99400.78;4402402;32;20401;-74
2022/09/01 08:21:27;;;;;;;1.95;0.90;;;;;;;17.12;100.00;99423.44;4412035;32;20076;-75
2022/09/01 08:23:54;;;;;;;1.00;1.00;;;;;;;16.95;100.00;99402.88;4426808;32;20067;-74
2022/09/01 08:26:24;;;;;;;0.60;0.60;;;;;;;16.85;100.00;99389.34;4426156;32;20441;-73
2022/09/01 08:28:52;;;;;;;1.08;0.62;;;;;;;16.95;100.00;99415.69;4429079;32;20526;-74
2022/09/01 08:31:23;;;;;;;1.55;0.70;;;;;;;16.99;100.00;99420.28;4428399;32;20076;-75
2022/09/01 08:33:50;;;;;;;1.75;1.08;;;;;;;17.12;100.00;99424.25;4427289;32;20041;-72
2022/09/01 08:36:18;;;;;;;1.73;0.82;;;;;;;17.27;100.00;99426.03;4425483;32;20072;-73
2022/09/01 08:38:44;;;;;;;2.53;1.10;;;;;;;17.28;100.00;99410.50;4424670;32;20034;-72
2022/09/01 08:41:36;;;;;;;2.22;0.88;;;;;;;17.59;100.00;99417.31;4415847;32;20027;-74
2022/09/01 08:44:36;;;;;;;2.72;0.90;;;;;;;17.51;100.00;99425.31;4429524;32;20961;-74
2022/09/01 08:47:07;;;;;;;1.42;0.73;;;;;;;17.34;100.00;99388.44;4426883;32;20095;-76
2022/09/01 08:49:37;;;;;;;1.85;0.73;;;;;;;17.45;100.00;99429.16;4429619;32;20084;-74
2022/09/01 08:52:31;;;;;;;0.62;0.57;;;;;;;17.41;100.00;99409.88;4430009;32;20052;-73
2022/09/01 08:55:12;;;;;;;3.85;0.75;;;;;;;17.88;100.00;99429.34;4431260;32;20568;-72
2022/09/01 08:57:42;;;;;;;1.35;0.77;;;;;;;17.50;100.00;99423.66;4439909;32;20052;-72
2022/09/01 09:00:38;;;;;;;5.50;1.02;;;;;;;17.78;100.00;99425.56;4438511;32;20062;-73
2022/09/01 09:03:14;;;;;;;1.02;0.70;;;;;;;17.78;100.00;99428.31;4434777;32;20085;-72
2022/09/01 09:06:02;;;;;;;0.70;0.55;;;;;;;17.49;100.00;99435.69;4429478;32;20067;-72
2022/09/01 09:08:28;;;;;;;1.42;1.33;;;;;;;17.35;100.00;99390.03;4434796;32;20050;-73
2022/09/01 09:11:06;;;;;;;1.25;0.82;;;;;;;17.50;100.00;99407.34;4432930;32;20042;-73
2022/09/01 09:13:54;;;;;;;1.17;0.50;;;;;;;17.53;100.00;99387.72;4398480;32;20402;-73
2022/09/01 09:16:27;;;;;;;0.65;0.65;;;;;;;18.18;100.00;99421.94;4397967;32;20439;-71
2022/09/01 09:19:07;;;;;;;0.52;0.43;;;;;;;18.24;100.00;99410.66;4398179;32;20027;-73
2022/09/01 09:21:38;;;;;;;0.53;0.50;;;;;;;17.64;100.00;99347.59;4393084;32;20034;-72
2022/09/01 09:24:05;;;;;;;1.37;0.70;;;;;;;18.32;100.00;99417.41;4382126;32;20047;-73
2022/09/01 09:26:31;;;;;;;0.73;0.50;;;;;;;18.24;100.00;99420.78;4380348;32;20103;-73
2022/09/01 09:28:58;;;;;;;0.88;0.82;;;;;;;18.15;100.00;99375.06;4393200;32;20073;-72
2022/09/01 09:31:28;;;;;;;4.60;1.10;;;;;;;18.18;100.00;99345.63;4391881;32;20459;-74
2022/09/01 09:33:56;;;;;;;0.80;0.70;;;;;;;18.55;100.00;99417.66;4367433;32;20091;-73
2022/09/01 09:36:35;;;;;;;1.77;0.62;;;;;;;18.27;100.00;99382.84;4362432;32;20362;-73
2022/09/01 09:39:15;;;;;;;1.55;0.55;;;;;;;18.38;100.00;99421.69;4371425;32;20028;-74
2022/09/01 09:42:00;;;;;;;1.65;0.65;;;;;;;18.38;100.00;99378.06;4373341;32;20050;-74
2022/09/01 09:44:32;;;;;;;1.60;1.50;;;;;;;18.74;99.50;99413.00;4375288;32;20278;-74
2022/09/01 09:47:00;;;;;;;1.00;0.65;;;;;;;18.31;91.15;99385.78;4393015;32;20042;-77
2022/09/01 09:49:33;;;;;;;0.47;0.47;;;;;;;18.52;96.07;99403.50;4400165;32;20070;-74
2022/09/01 09:52:08;;;;;;;2.35;0.70;;;;;;;18.22;99.82;99401.97;4386037;32;20082;-73
2022/09/01 09:54:38;;;;;;;0.52;0.40;;;;;;;18.20;100.00;99398.72;4391706;32;20044;-72
2022/09/01 09:57:07;;;;;;;1.75;0.60;;;;;;;18.36;100.00;99369.34;4395439;32;20039;-73
2022/09/01 09:59:38;;;;;;;4.37;0.77;;;;;;;18.60;100.00;99385.66;4397142;32;20055;-73
2022/09/01 10:02:15;;;;;;;0.60;0.60;;;;;;;18.88;100.00;99413.94;4402154;32;20414;-74
2022/09/01 10:04:42;;;;;;;0.62;0.62;;;;;;;18.66;100.00;99416.41;4366334;32;20061;-78
2022/09/01 10:07:29;;;;;;;3.35;0.50;;;;;;;18.13;100.00;99392.81;4364865;32;20429;-73
2022/09/01 10:09:59;;;;;;;0.70;0.70;;;;;;;18.03;100.00;99421.00;4317616;33;20102;-73
2022/09/01 10:12:28;;;;;;;0.88;0.75;;;;;;;17.58;100.00;99377.59;4320084;33;20073;-77
2022/09/01 10:15:01;;;;;;;1.17;0.62;;;;;;;17.38;100.00;99378.59;4309352;33;20058;-74
2022/09/01 10:17:38;;;;;;;1.23;0.65;;;;;;;17.53;100.00;99379.53;4313692;33;20060;-73
2022/09/01 10:20:10;;;;;;;1.02;1.00;;;;;;;17.76;100.00;99394.31;4327992;33;20029;-73
2022/09/01 10:22:38;;;;;;;1.23;0.60;;;;;;;18.06;100.00;99360.47;4312341;33;20171;-72
2022/09/01 10:25:07;;;;;;;0.75;0.60;;;;;;;18.66;100.00;99405.50;4317135;33;20058;-73
2022/09/01 10:27:40;;;;;;;1.17;0.60;;;;;;;18.64;100.00;99399.53;4302034;33;20103;-73
2022/09/01 10:30:12;;;;;;;2.15;0.68;;;;;;;18.67;100.00;99358.03;4319520;33;20092;-75
2022/09/01 10:32:44;;;;;;;0.85;0.60;;;;;;;19.13;97.79;99402.91;4324786;33;20086;-73
2022/09/01 10:35:20;;;;;;;1.37;0.95;;;;;;;19.41;97.48;99395.62;4327288;33;20062;-72
2022/09/01 10:37:47;;;;;;;0.70;0.70;;;;;;;18.61;76.60;99351.03;4353741;32;20039;-74
2022/09/01 10:40:27;;;;;;;1.75;0.73;;;;;;;18.68;73.33;99414.19;4361821;32;20895;-73
2022/09/01 10:43:28;;;;;;;2.65;0.82;;;;;;;18.56;82.37;99390.09;4338408;32;20065;-73
2022/09/01 10:45:55;;;;;;;1.62;0.80;;;;;;;18.43;88.18;99407.97;4375659;32;20036;-73
2022/09/01 10:48:24;;;;;;;0.70;0.70;;;;;;;18.24;97.34;99409.88;4385108;32;20023;-74
2022/09/01 10:50:53;;;;;;;4.00;1.23;;;;;;;18.06;100.00;99408.69;4383738;32;20039;-73
2022/09/01 10:53:32;;;;;;;0.65;0.60;;;;;;;17.98;100.00;99369.28;4371602;32;20039;-73
2022/09/01 10:56:23;;;;;;;2.50;0.50;;;;;;;18.47;100.00;99413.66;4381953;32;20039;-73
2022/09/01 10:59:42;;;;;;;0.40;0.40;;;;;;;18.58;100.00;99403.44;4379219;32;20057;-76
2022/09/01 11:02:15;;;;;;;1.45;0.60;;;;;;;18.61;100.00;99419.22;4335954;33;20017;-76
2022/09/01 11:04:44;;;;;;;;;;;;;;;18.78;100.00;99411.34;4342460;32;20110;-72
2022/09/01 11:07:22;;;;;;;3.90;0.60;;;;;;;18.99;100.00;99411.06;4352734;32;20070;-73
2022/09/01 11:10:46;;;;;;;1.08;0.60;;;;;;;18.96;93.23;99414.37;4350181;32;20057;-73
2022/09/01 11:13:44;;;;;;;1.08;0.70;;;;;;;18.99;96.63;99419.25;4286033;33;20059;-72
2022/09/01 11:16:26;;;;;;;1.20;0.50;;;;;;;19.23;99.05;99414.47;4284206;33;20057;-73
2022/09/01 11:18:55;;;;;;;1.85;0.50;;;;;;;18.84;98.79;99415.63;4278342;33;20068;-74
2022/09/01 11:21:32;;;;;;;0.80;0.60;;;;;;;18.68;96.27;99386.91;4279404;33;20055;-74
2022/09/01 11:24:36;;;;;;;3.22;1.12;;;;;;;18.84;99.47;99418.38;4269876;33;20033;-73
2022/09/01 11:27:06;;;;;;;0.60;0.60;;;;;;;18.86;100.00;99416.16;4281435;33;20061;-73
2022/09/01 11:29:50;;;;;;;0.73;0.73;;;;;;;18.67;100.00;99412.59;4278991;33;20071;-74
2022/09/01 11:32:20;;;;;;;7.68;0.65;;;;;;;18.88;100.00;99424.03;4281532;33;20033;-73
2022/09/01 11:34:49;;;;;;;0.50;0.50;;;;;;;18.69;100.00;99418.53;4295740;33;20030;-75
2022/09/01 11:37:19;;;;;;;0.55;0.55;;;;;;;18.47;100.00;99414.47;4314395;33;20071;-73
2022/09/01 11:39:57;;;;;;;0.70;0.70;;;;;;;18.33;100.00;99414.37;4282644;33;20041;-78
2022/09/01 11:42:28;;;;;;;0.47;0.47;;;;;;;18.42;100.00;99384.53;4283486;33;20447;-73
2022/09/01 11:45:23;;;;;;;0.85;0.60;;;;;;;18.07;100.00;99313.03;4337430;32;20017;-75
2022/09/01 11:48:11;;;;;;;0.60;0.60;;;;;;;19.08;100.00;99406.53;4348957;32;20035;-74
2022/09/01 11:50:41;;;;;;;0.68;0.68;;;;;;;19.10;100.00;99403.50;4354172;32;20062;-74
2022/09/01 11:53:14;;;;;;;2.28;0.60;;;;;;;19.40;100.00;99407.66;4342062;32;20079;-77